Time,TemperatureF,DewpointF,PressureIn,WindDirection,WindDirectionDegrees,WindSpeedMPH,WindSpeedGustMPH,Humidity,HourlyPrecipIn,Conditions,Clouds,dailyrainin,SoftwareType,DateUTC
2013-08-03 00:00:00,82.0,81.0,-100.00,SE,144,3.0,-999.0,97,0.00,,,0.00,,2013-08-03 05:00:00,
2013-08-03 00:32:00,82.0,81.0,-100.00,SE,144,3.0,-999.0,97,0.00,,,0.00,,2013-08-03 05:32:00,
2013-08-03 00:42:00,82.0,81.0,-100.00,SE,144,3.0,-999.0,97,0.00,,,0.00,,2013-08-03 05:42:00,
2013-08-03 00:52:00,82.0,81.0,-100.00,SE,144,3.0,-999.0,97,0.00,,,0.00,,2013-08-03 05:52:00,
2013-08-03 02:00:00,78.0,78.0,-100.00,SSE,164,3.0,-999.0,100,0.00,,,0.00,,2013-08-03 07:00:00,
2013-08-03 02:43:00,78.0,78.0,-100.00,SSE,164,3.0,-999.0,100,0.00,,,0.00,,2013-08-03 07:43:00,
2013-08-03 02:53:00,78.0,78.0,-100.00,SSE,164,3.0,-999.0,100,0.00,,,0.00,,2013-08-03 07:53:00,
2013-08-03 03:00:00,78.0,78.0,-100.00,SSE,163,1.0,-999.0,100,0.00,,,0.00,,2013-08-03 08:00:00,
2013-08-03 03:32:00,78.0,78.0,-100.00,SSE,163,1.0,-999.0,100,0.00,,,0.00,,2013-08-03 08:32:00,
2013-08-03 03:43:00,78.0,78.0,-100.00,SSE,163,1.0,-999.0,100,0.00,,,0.00,,2013-08-03 08:43:00,
2013-08-03 03:52:00,78.0,78.0,-100.00,SSE,163,1.0,-999.0,100,0.00,,,0.00,,2013-08-03 08:52:00,
2013-08-03 04:00:00,76.0,76.0,-100.00,SSE,164,3.0,-999.0,100,0.00,,,0.00,,2013-08-03 09:00:00,
2013-08-03 04:32:00,76.0,76.0,-100.00,SSE,164,3.0,-999.0,100,0.00,,,0.00,,2013-08-03 09:32:00,
2013-08-03 04:43:00,76.0,76.0,-100.00,SSE,164,3.0,-999.0,100,0.00,,,0.00,,2013-08-03 09:43:00,
2013-08-03 04:53:00,76.0,76.0,-100.00,SSE,164,3.0,-999.0,100,0.00,,,0.00,,2013-08-03 09:53:00,
2013-08-03 05:00:00,76.0,76.0,-100.00,SSE,164,3.0,-999.0,100,0.00,,,0.00,,2013-08-03 10:00:00,
2013-08-03 05:32:00,76.0,76.0,-100.00,SSE,164,3.0,-999.0,100,0.00,,,0.00,,2013-08-03 10:32:00,
2013-08-03 05:43:00,76.0,76.0,-100.00,SSE,164,3.0,-999.0,100,0.00,,,0.00,,2013-08-03 10:43:00,
2013-08-03 05:53:00,76.0,76.0,-100.00,SSE,164,3.0,-999.0,100,0.00,,,0.00,,2013-08-03 10:53:00,
2013-08-03 06:00:00,77.0,77.0,-100.00,SE,126,1.0,-999.0,100,0.00,,,0.00,,2013-08-03 11:00:00,
2013-08-03 06:32:00,77.0,77.0,-100.00,SE,126,1.0,-999.0,100,0.00,,,0.00,,2013-08-03 11:32:00,
2013-08-03 06:43:00,77.0,77.0,-100.00,SE,126,1.0,-999.0,100,0.00,,,0.00,,2013-08-03 11:43:00,
2013-08-03 06:53:00,77.0,77.0,-100.00,SE,126,1.0,-999.0,100,0.00,,,0.00,,2013-08-03 11:53:00,
2013-08-03 07:00:00,74.0,74.0,-100.00,SE,142,3.0,-999.0,100,0.00,,,0.00,,2013-08-03 12:00:00,
2013-08-03 07:43:00,74.0,74.0,-100.00,SE,142,3.0,-999.0,100,0.00,,,0.00,,2013-08-03 12:43:00,
2013-08-03 07:53:00,74.0,74.0,-100.00,SE,142,3.0,-999.0,100,0.00,,,0.00,,2013-08-03 12:53:00,
2013-08-03 09:00:00,80.0,78.0,-100.00,ESE,105,2.0,-999.0,94,-99.99,,,0.00,,2013-08-03 14:00:00,
2013-08-03 09:33:00,80.0,78.0,-100.00,ESE,105,2.0,-999.0,94,-99.99,,,0.00,,2013-08-03 14:33:00,
2013-08-03 09:42:00,80.0,78.0,-100.00,ESE,105,2.0,-999.0,94,-99.99,,,0.00,,2013-08-03 14:42:00,
2013-08-03 09:52:00,80.0,78.0,-100.00,ESE,105,2.0,-999.0,94,-99.99,,,0.00,,2013-08-03 14:52:00,
2013-08-03 10:00:00,83.0,77.0,-100.00,NNE,16,1.0,-999.0,82,0.00,,,0.00,,2013-08-03 15:00:00,
2013-08-03 10:32:00,83.0,77.0,-100.00,NNE,16,1.0,-999.0,82,0.00,,,0.00,,2013-08-03 15:32:00,
2013-08-03 10:43:00,83.0,77.0,-100.00,NNE,16,1.0,-999.0,82,0.00,,,0.00,,2013-08-03 15:43:00,
2013-08-03 10:53:00,83.0,77.0,-100.00,NNE,16,1.0,-999.0,82,0.00,,,0.00,,2013-08-03 15:53:00,
2013-08-03 12:00:00,88.0,75.0,-100.00,NE,43,4.0,-999.0,65,-99.99,,,0.00,,2013-08-03 17:00:00,
2013-08-03 12:32:00,88.0,75.0,-100.00,NE,43,4.0,-999.0,65,-99.99,,,0.00,,2013-08-03 17:32:00,
2013-08-03 12:43:00,88.0,75.0,-100.00,NE,43,4.0,-999.0,65,-99.99,,,0.00,,2013-08-03 17:43:00,
2013-08-03 12:52:00,88.0,75.0,-100.00,NE,43,4.0,-999.0,65,-99.99,,,0.00,,2013-08-03 17:52:00,
2013-08-03 13:00:00,91.0,77.0,-100.00,ENE,67,3.0,-999.0,63,0.00,,,0.00,,2013-08-03 18:00:00,
2013-08-03 13:32:00,91.0,77.0,-100.00,ENE,67,3.0,-999.0,63,0.00,,,0.00,,2013-08-03 18:32:00,
2013-08-03 13:43:00,91.0,77.0,-100.00,ENE,67,3.0,-999.0,63,0.00,,,0.00,,2013-08-03 18:43:00,
2013-08-03 13:53:00,91.0,77.0,-100.00,ENE,67,3.0,-999.0,63,0.00,,,0.00,,2013-08-03 18:53:00,
2013-08-03 14:00:00,92.0,78.0,-100.00,SSE,154,7.0,-999.0,65,0.00,,,0.00,,2013-08-03 19:00:00,
2013-08-03 14:32:00,92.0,78.0,-100.00,SSE,154,7.0,-999.0,65,0.00,,,0.00,,2013-08-03 19:32:00,
2013-08-03 14:43:00,92.0,78.0,-100.00,SSE,154,7.0,-999.0,65,0.00,,,0.00,,2013-08-03 19:43:00,
2013-08-03 14:53:00,92.0,78.0,-100.00,SSE,154,7.0,-999.0,65,0.00,,,0.00,,2013-08-03 19:53:00,
2013-08-03 15:00:00,92.0,77.0,-100.00,SSE,154,8.0,-999.0,62,0.00,,,0.00,,2013-08-03 20:00:00,
2013-08-03 15:32:00,92.0,77.0,-100.00,SSE,154,8.0,-999.0,62,0.00,,,0.00,,2013-08-03 20:32:00,
2013-08-03 15:42:00,92.0,77.0,-100.00,SSE,154,8.0,-999.0,62,0.00,,,0.00,,2013-08-03 20:42:00,
2013-08-03 15:52:00,92.0,77.0,-100.00,SSE,154,8.0,-999.0,62,0.00,,,0.00,,2013-08-03 20:52:00,
2013-08-03 16:00:00,91.0,78.0,-100.00,SSE,166,10.0,-999.0,65,0.00,,,0.00,,2013-08-03 21:00:00,
2013-08-03 16:42:00,91.0,78.0,-100.00,SSE,166,10.0,-999.0,65,0.00,,,0.00,,2013-08-03 21:42:00,
2013-08-03 16:52:00,91.0,78.0,-100.00,SSE,166,10.0,-999.0,65,0.00,,,0.00,,2013-08-03 21:52:00,
2013-08-03 17:00:00,92.0,79.0,-100.00,SSE,166,9.0,-999.0,66,0.00,,,0.00,,2013-08-03 22:00:00,
2013-08-03 17:33:00,92.0,79.0,-100.00,SSE,166,9.0,-999.0,66,0.00,,,0.00,,2013-08-03 22:33:00,
2013-08-03 17:43:00,92.0,79.0,-100.00,SSE,166,9.0,-999.0,66,0.00,,,0.00,,2013-08-03 22:43:00,
2013-08-03 17:52:00,92.0,79.0,-100.00,SSE,166,9.0,-999.0,66,0.00,,,0.00,,2013-08-03 22:52:00,
2013-08-03 18:00:00,89.0,77.0,-100.00,SSE,157,8.0,-999.0,68,0.00,,,0.00,,2013-08-03 23:00:00,
2013-08-03 18:32:00,89.0,77.0,-100.00,SSE,157,8.0,-999.0,68,0.00,,,0.00,,2013-08-03 23:32:00,
2013-08-03 18:43:00,89.0,77.0,-100.00,SSE,157,8.0,-999.0,68,0.00,,,0.00,,2013-08-03 23:43:00,
2013-08-03 18:52:00,89.0,77.0,-100.00,SSE,157,8.0,-999.0,68,0.00,,,0.00,,2013-08-03 23:52:00,
2013-08-03 19:00:00,89.0,77.0,-100.00,SSE,150,6.0,-999.0,68,0.00,,,0.00,,2013-08-04 00:00:00,
2013-08-03 19:42:00,89.0,77.0,-100.00,SSE,150,6.0,-999.0,68,0.00,,,0.00,,2013-08-04 00:42:00,
2013-08-03 19:53:00,89.0,77.0,-100.00,SSE,150,6.0,-999.0,68,0.00,,,0.00,,2013-08-04 00:53:00,
2013-08-03 20:00:00,87.0,77.0,-100.00,East,99,4.0,-999.0,73,0.00,,,0.00,,2013-08-04 01:00:00,
2013-08-03 20:32:00,87.0,77.0,-100.00,East,99,4.0,-999.0,73,0.00,,,0.00,,2013-08-04 01:32:00,
2013-08-03 20:42:00,87.0,77.0,-100.00,East,99,4.0,-999.0,73,0.00,,,0.00,,2013-08-04 01:42:00,
2013-08-03 20:53:00,87.0,77.0,-100.00,East,99,4.0,-999.0,73,0.00,,,0.00,,2013-08-04 01:53:00,
2013-08-03 21:00:00,84.0,77.0,-100.00,ESE,102,4.0,-999.0,81,0.00,,,0.00,,2013-08-04 02:00:00,
2013-08-03 21:32:00,84.0,77.0,-100.00,ESE,102,4.0,-999.0,81,0.00,,,0.00,,2013-08-04 02:32:00,
2013-08-03 21:42:00,84.0,77.0,-100.00,ESE,102,4.0,-999.0,81,0.00,,,0.00,,2013-08-04 02:42:00,
2013-08-03 21:52:00,84.0,77.0,-100.00,ESE,102,4.0,-999.0,81,0.00,,,0.00,,2013-08-04 02:52:00,
2013-08-03 22:00:00,84.0,77.0,-100.00,East,84,4.0,-999.0,81,0.00,,,0.00,,2013-08-04 03:00:00,
2013-08-03 22:32:00,84.0,77.0,-100.00,East,84,4.0,-999.0,81,0.00,,,0.00,,2013-08-04 03:32:00,
2013-08-03 22:42:00,84.0,77.0,-100.00,East,84,4.0,-999.0,81,0.00,,,0.00,,2013-08-04 03:42:00,
2013-08-03 22:52:00,84.0,77.0,-100.00,East,84,4.0,-999.0,81,0.00,,,0.00,,2013-08-04 03:52:00,
2013-08-03 23:00:00,81.0,77.0,-100.00,SSE,148,2.0,-999.0,87,0.00,,,0.00,,2013-08-04 04:00:00,
2013-08-03 23:32:00,81.0,77.0,-100.00,SSE,148,2.0,-999.0,87,0.00,,,0.00,,2013-08-04 04:32:00,
2013-08-03 23:42:00,81.0,77.0,-100.00,SSE,148,2.0,-999.0,87,0.00,,,0.00,,2013-08-04 04:42:00,